sensor_id;sensor_type;location;lat;lon;timestamp;P1;durP1;ratioP1;P2;durP2;ratioP2
46288;SDS011;63105;46.158;14.604;2023-07-22T00:00:25;4.45;;;2.72;;
46288;SDS011;63105;46.158;14.604;2023-07-22T00:02:51;5.55;;;2.65;;
46288;SDS011;63105;46.158;14.604;2023-07-22T00:05:16;4.63;;;2.80;;
46288;SDS011;63105;46.158;14.604;2023-07-22T00:07:46;5.10;;;2.65;;
46288;SDS011;63105;46.158;14.604;2023-07-22T00:10:12;3.95;;;2.35;;
46288;SDS011;63105;46.158;14.604;2023-07-22T00:12:37;4.15;;;2.58;;
46288;SDS011;63105;46.158;14.604;2023-07-22T00:15:03;3.90;;;2.30;;
46288;SDS011;63105;46.158;14.604;2023-07-22T00:17:28;4.28;;;2.50;;
46288;SDS011;63105;46.158;14.604;2023-07-22T00:19:54;4.63;;;2.40;;
46288;SDS011;63105;46.158;14.604;2023-07-22T00:22:20;3.80;;;2.15;;
46288;SDS011;63105;46.158;14.604;2023-07-22T00:24:46;4.50;;;2.30;;
46288;SDS011;63105;46.158;14.604;2023-07-22T00:27:11;4.20;;;2.20;;
46288;SDS011;63105;46.158;14.604;2023-07-22T00:29:37;4.60;;;2.40;;
46288;SDS011;63105;46.158;14.604;2023-07-22T00:32:04;4.57;;;2.70;;
46288;SDS011;63105;46.158;14.604;2023-07-22T00:34:32;6.82;;;2.55;;
46288;SDS011;63105;46.158;14.604;2023-07-22T00:36:57;4.30;;;2.40;;
46288;SDS011;63105;46.158;14.604;2023-07-22T00:39:23;4.38;;;2.45;;
46288;SDS011;63105;46.158;14.604;2023-07-22T00:41:48;4.13;;;2.33;;
46288;SDS011;63105;46.158;14.604;2023-07-22T00:44:13;4.73;;;2.83;;
46288;SDS011;63105;46.158;14.604;2023-07-22T00:46:38;4.90;;;2.33;;
46288;SDS011;63105;46.158;14.604;2023-07-22T00:49:07;4.38;;;2.45;;
46288;SDS011;63105;46.158;14.604;2023-07-22T00:51:32;4.18;;;2.30;;
46288;SDS011;63105;46.158;14.604;2023-07-22T00:53:57;4.32;;;2.40;;
46288;SDS011;63105;46.158;14.604;2023-07-22T00:56:22;3.83;;;2.27;;
46288;SDS011;63105;46.158;14.604;2023-07-22T00:58:48;4.00;;;2.60;;
46288;SDS011;63105;46.158;14.604;2023-07-22T01:01:13;4.73;;;2.30;;
46288;SDS011;63105;46.158;14.604;2023-07-22T01:03:38;4.73;;;2.50;;
46288;SDS011;63105;46.158;14.604;2023-07-22T01:06:03;3.90;;;2.40;;
46288;SDS011;63105;46.158;14.604;2023-07-22T01:08:29;4.40;;;2.30;;
46288;SDS011;63105;46.158;14.604;2023-07-22T01:10:54;3.70;;;2.47;;
46288;SDS011;63105;46.158;14.604;2023-07-22T01:13:19;3.80;;;2.30;;
46288;SDS011;63105;46.158;14.604;2023-07-22T01:15:44;5.80;;;2.67;;
46288;SDS011;63105;46.158;14.604;2023-07-22T01:18:10;4.00;;;2.42;;
46288;SDS011;63105;46.158;14.604;2023-07-22T01:20:35;3.45;;;2.30;;
46288;SDS011;63105;46.158;14.604;2023-07-22T01:23:01;3.80;;;2.40;;
46288;SDS011;63105;46.158;14.604;2023-07-22T01:25:26;4.07;;;2.30;;
46288;SDS011;63105;46.158;14.604;2023-07-22T01:27:52;3.60;;;2.00;;
46288;SDS011;63105;46.158;14.604;2023-07-22T01:30:17;3.22;;;2.20;;
46288;SDS011;63105;46.158;14.604;2023-07-22T01:32:42;4.78;;;2.10;;
46288;SDS011;63105;46.158;14.604;2023-07-22T01:35:08;4.00;;;2.20;;
46288;SDS011;63105;46.158;14.604;2023-07-22T01:37:34;4.95;;;2.50;;
46288;SDS011;63105;46.158;14.604;2023-07-22T01:39:59;4.47;;;2.20;;
46288;SDS011;63105;46.158;14.604;2023-07-22T01:42:24;3.30;;;2.00;;
46288;SDS011;63105;46.158;14.604;2023-07-22T01:44:49;3.47;;;2.00;;
46288;SDS011;63105;46.158;14.604;2023-07-22T01:47:15;3.75;;;2.00;;
46288;SDS011;63105;46.158;14.604;2023-07-22T01:49:41;5.30;;;2.00;;
46288;SDS011;63105;46.158;14.604;2023-07-22T01:52:06;3.47;;;1.90;;
46288;SDS011;63105;46.158;14.604;2023-07-22T01:54:31;4.22;;;2.00;;
46288;SDS011;63105;46.158;14.604;2023-07-22T01:56:56;3.80;;;1.87;;
46288;SDS011;63105;46.158;14.604;2023-07-22T01:59:22;3.17;;;1.90;;
46288;SDS011;63105;46.158;14.604;2023-07-22T02:01:47;3.10;;;1.63;;
46288;SDS011;63105;46.158;14.604;2023-07-22T02:04:12;3.28;;;2.00;;
46288;SDS011;63105;46.158;14.604;2023-07-22T02:06:38;3.10;;;1.80;;
46288;SDS011;63105;46.158;14.604;2023-07-22T02:09:03;3.95;;;1.95;;
46288;SDS011;63105;46.158;14.604;2023-07-22T02:11:36;3.10;;;1.80;;
46288;SDS011;63105;46.158;14.604;2023-07-22T02:14:01;2.75;;;1.65;;
46288;SDS011;63105;46.158;14.604;2023-07-22T02:16:28;3.30;;;1.90;;
46288;SDS011;63105;46.158;14.604;2023-07-22T02:18:53;3.10;;;1.77;;
46288;SDS011;63105;46.158;14.604;2023-07-22T02:21:19;3.23;;;1.57;;
46288;SDS011;63105;46.158;14.604;2023-07-22T02:23:44;2.97;;;1.70;;
46288;SDS011;63105;46.158;14.604;2023-07-22T02:26:09;3.47;;;2.00;;
46288;SDS011;63105;46.158;14.604;2023-07-22T02:28:34;3.08;;;1.70;;
46288;SDS011;63105;46.158;14.604;2023-07-22T02:31:01;3.10;;;1.60;;
46288;SDS011;63105;46.158;14.604;2023-07-22T02:33:27;3.30;;;1.67;;
46288;SDS011;63105;46.158;14.604;2023-07-22T02:35:52;3.30;;;1.90;;
46288;SDS011;63105;46.158;14.604;2023-07-22T02:38:17;4.07;;;1.80;;
46288;SDS011;63105;46.158;14.604;2023-07-22T02:40:43;3.30;;;1.63;;
46288;SDS011;63105;46.158;14.604;2023-07-22T02:43:08;2.80;;;1.70;;
46288;SDS011;63105;46.158;14.604;2023-07-22T02:45:33;2.70;;;1.50;;
46288;SDS011;63105;46.158;14.604;2023-07-22T02:47:59;3.35;;;1.80;;
46288;SDS011;63105;46.158;14.604;2023-07-22T02:50:24;3.13;;;1.70;;
46288;SDS011;63105;46.158;14.604;2023-07-22T02:52:50;3.08;;;1.70;;
46288;SDS011;63105;46.158;14.604;2023-07-22T02:55:16;2.87;;;1.60;;
46288;SDS011;63105;46.158;14.604;2023-07-22T02:57:44;3.85;;;1.73;;
46288;SDS011;63105;46.158;14.604;2023-07-22T03:00:09;2.80;;;1.40;;
46288;SDS011;63105;46.158;14.604;2023-07-22T03:02:37;3.03;;;1.63;;
46288;SDS011;63105;46.158;14.604;2023-07-22T03:05:06;3.20;;;1.65;;
46288;SDS011;63105;46.158;14.604;2023-07-22T03:07:35;2.97;;;1.67;;
46288;SDS011;63105;46.158;14.604;2023-07-22T03:10:00;3.10;;;2.03;;
46288;SDS011;63105;46.158;14.604;2023-07-22T03:12:25;2.83;;;1.70;;
46288;SDS011;63105;46.158;14.604;2023-07-22T03:14:51;2.90;;;1.70;;
46288;SDS011;63105;46.158;14.604;2023-07-22T03:17:17;2.97;;;1.80;;
46288;SDS011;63105;46.158;14.604;2023-07-22T03:19:42;3.15;;;1.83;;
46288;SDS011;63105;46.158;14.604;2023-07-22T03:22:08;3.65;;;1.77;;
46288;SDS011;63105;46.158;14.604;2023-07-22T03:24:33;3.13;;;1.77;;
46288;SDS011;63105;46.158;14.604;2023-07-22T03:26:59;3.80;;;1.90;;
46288;SDS011;63105;46.158;14.604;2023-07-22T03:29:24;3.50;;;1.80;;
46288;SDS011;63105;46.158;14.604;2023-07-22T03:31:49;3.40;;;1.87;;
46288;SDS011;63105;46.158;14.604;2023-07-22T03:34:14;3.22;;;1.83;;
46288;SDS011;63105;46.158;14.604;2023-07-22T03:36:40;3.40;;;2.00;;
46288;SDS011;63105;46.158;14.604;2023-07-22T03:39:05;3.23;;;1.80;;
46288;SDS011;63105;46.158;14.604;2023-07-22T03:41:31;3.67;;;1.95;;
46288;SDS011;63105;46.158;14.604;2023-07-22T03:43:56;3.10;;;1.60;;
46288;SDS011;63105;46.158;14.604;2023-07-22T03:46:21;2.57;;;1.60;;
46288;SDS011;63105;46.158;14.604;2023-07-22T03:48:46;3.77;;;1.80;;
46288;SDS011;63105;46.158;14.604;2023-07-22T03:51:11;3.57;;;1.90;;
46288;SDS011;63105;46.158;14.604;2023-07-22T03:53:37;3.00;;;1.80;;
46288;SDS011;63105;46.158;14.604;2023-07-22T03:56:02;2.90;;;1.70;;
46288;SDS011;63105;46.158;14.604;2023-07-22T03:58:29;3.38;;;1.60;;
46288;SDS011;63105;46.158;14.604;2023-07-22T04:00:54;2.90;;;1.60;;
46288;SDS011;63105;46.158;14.604;2023-07-22T04:03:19;3.20;;;1.83;;
46288;SDS011;63105;46.158;14.604;2023-07-22T04:05:52;3.03;;;1.85;;
46288;SDS011;63105;46.158;14.604;2023-07-22T04:08:17;4.00;;;1.92;;
46288;SDS011;63105;46.158;14.604;2023-07-22T04:10:50;3.67;;;2.00;;
46288;SDS011;63105;46.158;14.604;2023-07-22T04:13:15;3.72;;;1.80;;
46288;SDS011;63105;46.158;14.604;2023-07-22T04:15:40;3.13;;;1.97;;
46288;SDS011;63105;46.158;14.604;2023-07-22T04:18:06;3.13;;;1.83;;
46288;SDS011;63105;46.158;14.604;2023-07-22T04:20:31;4.03;;;2.00;;
46288;SDS011;63105;46.158;14.604;2023-07-22T04:22:57;4.67;;;1.77;;
46288;SDS011;63105;46.158;14.604;2023-07-22T04:25:22;3.43;;;2.03;;
46288;SDS011;63105;46.158;14.604;2023-07-22T04:27:47;3.40;;;1.80;;
46288;SDS011;63105;46.158;14.604;2023-07-22T04:30:12;2.60;;;1.50;;
46288;SDS011;63105;46.158;14.604;2023-07-22T04:32:45;5.60;;;2.13;;
46288;SDS011;63105;46.158;14.604;2023-07-22T04:35:10;4.88;;;2.13;;
46288;SDS011;63105;46.158;14.604;2023-07-22T04:37:36;4.00;;;2.20;;
46288;SDS011;63105;46.158;14.604;2023-07-22T04:40:02;5.90;;;2.97;;
46288;SDS011;63105;46.158;14.604;2023-07-22T04:42:31;5.40;;;3.00;;
46288;SDS011;63105;46.158;14.604;2023-07-22T04:44:56;5.63;;;2.85;;
46288;SDS011;63105;46.158;14.604;2023-07-22T04:47:21;4.20;;;2.70;;
46288;SDS011;63105;46.158;14.604;2023-07-22T04:49:46;4.70;;;2.70;;
46288;SDS011;63105;46.158;14.604;2023-07-22T04:52:11;4.23;;;2.83;;
46288;SDS011;63105;46.158;14.604;2023-07-22T04:54:37;4.67;;;3.10;;
46288;SDS011;63105;46.158;14.604;2023-07-22T04:57:02;4.03;;;2.70;;
46288;SDS011;63105;46.158;14.604;2023-07-22T04:59:28;5.43;;;2.47;;
46288;SDS011;63105;46.158;14.604;2023-07-22T05:01:53;3.75;;;2.30;;
46288;SDS011;63105;46.158;14.604;2023-07-22T05:04:18;4.80;;;2.83;;
46288;SDS011;63105;46.158;14.604;2023-07-22T05:06:43;5.03;;;3.03;;
46288;SDS011;63105;46.158;14.604;2023-07-22T05:09:09;6.80;;;4.50;;
46288;SDS011;63105;46.158;14.604;2023-07-22T05:11:34;6.43;;;3.93;;
46288;SDS011;63105;46.158;14.604;2023-07-22T05:13:59;6.07;;;3.97;;
46288;SDS011;63105;46.158;14.604;2023-07-22T05:16:24;7.60;;;4.30;;
46288;SDS011;63105;46.158;14.604;2023-07-22T05:18:49;7.40;;;4.60;;
46288;SDS011;63105;46.158;14.604;2023-07-22T05:21:15;9.70;;;5.10;;
46288;SDS011;63105;46.158;14.604;2023-07-22T05:23:40;8.77;;;5.00;;
46288;SDS011;63105;46.158;14.604;2023-07-22T05:26:05;8.05;;;4.50;;
46288;SDS011;63105;46.158;14.604;2023-07-22T05:28:30;7.40;;;4.23;;
46288;SDS011;63105;46.158;14.604;2023-07-22T05:30:56;7.20;;;3.93;;
46288;SDS011;63105;46.158;14.604;2023-07-22T05:33:21;8.75;;;5.32;;
46288;SDS011;63105;46.158;14.604;2023-07-22T05:35:46;8.02;;;4.80;;
46288;SDS011;63105;46.158;14.604;2023-07-22T05:38:11;7.80;;;4.87;;
46288;SDS011;63105;46.158;14.604;2023-07-22T05:40:37;6.17;;;4.37;;
46288;SDS011;63105;46.158;14.604;2023-07-22T05:43:02;5.50;;;3.80;;
46288;SDS011;63105;46.158;14.604;2023-07-22T05:45:27;6.85;;;4.13;;
46288;SDS011;63105;46.158;14.604;2023-07-22T05:47:53;7.88;;;5.40;;
46288;SDS011;63105;46.158;14.604;2023-07-22T05:50:18;9.40;;;4.90;;
46288;SDS011;63105;46.158;14.604;2023-07-22T05:52:43;7.43;;;5.10;;
46288;SDS011;63105;46.158;14.604;2023-07-22T05:55:09;8.20;;;5.50;;
46288;SDS011;63105;46.158;14.604;2023-07-22T05:57:34;8.95;;;6.15;;
46288;SDS011;63105;46.158;14.604;2023-07-22T05:59:59;8.32;;;5.45;;
46288;SDS011;63105;46.158;14.604;2023-07-22T06:02:24;9.00;;;6.20;;
46288;SDS011;63105;46.158;14.604;2023-07-22T06:04:50;8.37;;;5.80;;
46288;SDS011;63105;46.158;14.604;2023-07-22T06:07:15;8.23;;;5.50;;
46288;SDS011;63105;46.158;14.604;2023-07-22T06:09:40;7.83;;;5.57;;
46288;SDS011;63105;46.158;14.604;2023-07-22T06:12:05;6.73;;;5.03;;
46288;SDS011;63105;46.158;14.604;2023-07-22T06:14:31;8.65;;;5.85;;
46288;SDS011;63105;46.158;14.604;2023-07-22T06:16:56;7.10;;;5.13;;
46288;SDS011;63105;46.158;14.604;2023-07-22T06:19:21;8.88;;;6.32;;
46288;SDS011;63105;46.158;14.604;2023-07-22T06:21:48;10.32;;;7.15;;
46288;SDS011;63105;46.158;14.604;2023-07-22T06:24:13;9.67;;;7.00;;
46288;SDS011;63105;46.158;14.604;2023-07-22T06:26:38;8.33;;;5.73;;
46288;SDS011;63105;46.158;14.604;2023-07-22T06:29:04;8.57;;;5.10;;
46288;SDS011;63105;46.158;14.604;2023-07-22T06:31:29;6.50;;;4.87;;
46288;SDS011;63105;46.158;14.604;2023-07-22T06:33:56;7.60;;;4.65;;
46288;SDS011;63105;46.158;14.604;2023-07-22T06:36:21;6.80;;;4.65;;
46288;SDS011;63105;46.158;14.604;2023-07-22T06:38:47;6.05;;;4.30;;
46288;SDS011;63105;46.158;14.604;2023-07-22T06:41:12;6.43;;;4.00;;
46288;SDS011;63105;46.158;14.604;2023-07-22T06:43:37;6.17;;;4.17;;
46288;SDS011;63105;46.158;14.604;2023-07-22T06:46:02;8.03;;;4.70;;
46288;SDS011;63105;46.158;14.604;2023-07-22T06:48:28;5.93;;;3.90;;
46288;SDS011;63105;46.158;14.604;2023-07-22T06:50:53;5.90;;;3.60;;
46288;SDS011;63105;46.158;14.604;2023-07-22T06:53:18;5.60;;;3.57;;
46288;SDS011;63105;46.158;14.604;2023-07-22T06:55:50;5.18;;;3.70;;
46288;SDS011;63105;46.158;14.604;2023-07-22T06:58:21;5.75;;;3.72;;
46288;SDS011;63105;46.158;14.604;2023-07-22T07:00:47;5.55;;;3.65;;
46288;SDS011;63105;46.158;14.604;2023-07-22T07:03:13;5.45;;;3.67;;
46288;SDS011;63105;46.158;14.604;2023-07-22T07:05:38;5.10;;;3.47;;
46288;SDS011;63105;46.158;14.604;2023-07-22T07:08:06;5.00;;;3.25;;
46288;SDS011;63105;46.158;14.604;2023-07-22T07:10:35;5.53;;;3.40;;
46288;SDS011;63105;46.158;14.604;2023-07-22T07:13:01;6.57;;;3.33;;
46288;SDS011;63105;46.158;14.604;2023-07-22T07:15:26;4.97;;;3.10;;
46288;SDS011;63105;46.158;14.604;2023-07-22T07:17:51;4.87;;;2.93;;
46288;SDS011;63105;46.158;14.604;2023-07-22T07:20:16;6.63;;;2.90;;
46288;SDS011;63105;46.158;14.604;2023-07-22T07:22:42;4.83;;;2.70;;
46288;SDS011;63105;46.158;14.604;2023-07-22T07:25:07;5.68;;;3.03;;
46288;SDS011;63105;46.158;14.604;2023-07-22T07:27:33;5.10;;;2.92;;
46288;SDS011;63105;46.158;14.604;2023-07-22T07:29:58;4.33;;;2.70;;
46288;SDS011;63105;46.158;14.604;2023-07-22T07:32:23;4.67;;;2.80;;
46288;SDS011;63105;46.158;14.604;2023-07-22T07:34:49;5.22;;;2.63;;
46288;SDS011;63105;46.158;14.604;2023-07-22T07:37:14;4.17;;;2.70;;
46288;SDS011;63105;46.158;14.604;2023-07-22T07:39:39;4.60;;;2.53;;
46288;SDS011;63105;46.158;14.604;2023-07-22T07:42:05;4.85;;;2.78;;
46288;SDS011;63105;46.158;14.604;2023-07-22T07:44:30;5.03;;;2.97;;
46288;SDS011;63105;46.158;14.604;2023-07-22T07:46:55;5.07;;;2.50;;
46288;SDS011;63105;46.158;14.604;2023-07-22T07:49:21;3.50;;;2.20;;
46288;SDS011;63105;46.158;14.604;2023-07-22T07:51:46;4.28;;;2.50;;
46288;SDS011;63105;46.158;14.604;2023-07-22T07:54:11;4.28;;;2.17;;
46288;SDS011;63105;46.158;14.604;2023-07-22T07:56:36;4.60;;;2.40;;
46288;SDS011;63105;46.158;14.604;2023-07-22T07:59:02;4.33;;;2.47;;
46288;SDS011;63105;46.158;14.604;2023-07-22T08:01:27;4.63;;;2.70;;
46288;SDS011;63105;46.158;14.604;2023-07-22T08:03:52;3.87;;;2.10;;
46288;SDS011;63105;46.158;14.604;2023-07-22T08:06:18;3.67;;;2.17;;
46288;SDS011;63105;46.158;14.604;2023-07-22T08:08:43;4.43;;;2.17;;
46288;SDS011;63105;46.158;14.604;2023-07-22T08:11:12;4.30;;;2.30;;
46288;SDS011;63105;46.158;14.604;2023-07-22T08:13:41;4.07;;;2.42;;
46288;SDS011;63105;46.158;14.604;2023-07-22T08:16:08;4.20;;;2.20;;
46288;SDS011;63105;46.158;14.604;2023-07-22T08:18:33;3.95;;;2.08;;
46288;SDS011;63105;46.158;14.604;2023-07-22T08:20:59;3.50;;;2.00;;
46288;SDS011;63105;46.158;14.604;2023-07-22T08:23:24;3.90;;;2.30;;
46288;SDS011;63105;46.158;14.604;2023-07-22T08:25:49;3.80;;;2.00;;
46288;SDS011;63105;46.158;14.604;2023-07-22T08:28:15;3.17;;;1.80;;
46288;SDS011;63105;46.158;14.604;2023-07-22T08:30:42;3.25;;;1.90;;
46288;SDS011;63105;46.158;14.604;2023-07-22T08:33:08;3.75;;;2.08;;
46288;SDS011;63105;46.158;14.604;2023-07-22T08:35:36;3.45;;;1.92;;
46288;SDS011;63105;46.158;14.604;2023-07-22T08:38:01;3.70;;;2.03;;
46288;SDS011;63105;46.158;14.604;2023-07-22T08:40:27;3.25;;;2.00;;
46288;SDS011;63105;46.158;14.604;2023-07-22T08:42:53;3.10;;;2.00;;
46288;SDS011;63105;46.158;14.604;2023-07-22T08:45:19;3.22;;;1.95;;
46288;SDS011;63105;46.158;14.604;2023-07-22T08:47:46;3.88;;;1.85;;
46288;SDS011;63105;46.158;14.604;2023-07-22T08:50:11;4.38;;;2.20;;
46288;SDS011;63105;46.158;14.604;2023-07-22T08:52:39;3.40;;;1.90;;
46288;SDS011;63105;46.158;14.604;2023-07-22T08:55:04;3.60;;;1.90;;
46288;SDS011;63105;46.158;14.604;2023-07-22T08:57:30;3.65;;;2.00;;
46288;SDS011;63105;46.158;14.604;2023-07-22T08:59:56;3.20;;;1.52;;
46288;SDS011;63105;46.158;14.604;2023-07-22T09:02:22;3.42;;;2.00;;
46288;SDS011;63105;46.158;14.604;2023-07-22T09:04:48;3.33;;;1.90;;
46288;SDS011;63105;46.158;14.604;2023-07-22T09:07:13;3.27;;;2.03;;
46288;SDS011;63105;46.158;14.604;2023-07-22T09:09:39;3.67;;;1.90;;
46288;SDS011;63105;46.158;14.604;2023-07-22T09:12:06;3.65;;;1.90;;
46288;SDS011;63105;46.158;14.604;2023-07-22T09:14:31;2.90;;;1.67;;
46288;SDS011;63105;46.158;14.604;2023-07-22T09:16:58;2.78;;;1.70;;
46288;SDS011;63105;46.158;14.604;2023-07-22T09:19:23;3.43;;;1.80;;
46288;SDS011;63105;46.158;14.604;2023-07-22T09:21:49;3.22;;;1.70;;
46288;SDS011;63105;46.158;14.604;2023-07-22T09:24:24;2.47;;;1.47;;
46288;SDS011;63105;46.158;14.604;2023-07-22T09:26:49;3.20;;;1.73;;
46288;SDS011;63105;46.158;14.604;2023-07-22T09:29:15;3.33;;;1.70;;
46288;SDS011;63105;46.158;14.604;2023-07-22T09:31:50;3.17;;;1.60;;
46288;SDS011;63105;46.158;14.604;2023-07-22T09:34:16;3.42;;;1.90;;
46288;SDS011;63105;46.158;14.604;2023-07-22T09:36:51;4.47;;;2.25;;
46288;SDS011;63105;46.158;14.604;2023-07-22T09:39:17;4.95;;;2.25;;
46288;SDS011;63105;46.158;14.604;2023-07-22T09:41:42;4.65;;;2.75;;
46288;SDS011;63105;46.158;14.604;2023-07-22T09:44:09;5.57;;;2.67;;
46288;SDS011;63105;46.158;14.604;2023-07-22T09:46:34;4.05;;;2.45;;
46288;SDS011;63105;46.158;14.604;2023-07-22T09:49:02;5.60;;;2.40;;
46288;SDS011;63105;46.158;14.604;2023-07-22T09:51:31;4.00;;;2.10;;
46288;SDS011;63105;46.158;14.604;2023-07-22T09:54:01;3.60;;;2.00;;
46288;SDS011;63105;46.158;14.604;2023-07-22T09:56:26;4.38;;;2.40;;
46288;SDS011;63105;46.158;14.604;2023-07-22T09:58:51;3.60;;;1.97;;
46288;SDS011;63105;46.158;14.604;2023-07-22T10:01:19;4.32;;;2.00;;
46288;SDS011;63105;46.158;14.604;2023-07-22T10:03:44;3.53;;;2.00;;
46288;SDS011;63105;46.158;14.604;2023-07-22T10:06:10;4.15;;;2.10;;
46288;SDS011;63105;46.158;14.604;2023-07-22T10:08:35;4.32;;;2.40;;
46288;SDS011;63105;46.158;14.604;2023-07-22T10:11:01;4.50;;;2.50;;
46288;SDS011;63105;46.158;14.604;2023-07-22T10:13:28;4.80;;;2.78;;
46288;SDS011;63105;46.158;14.604;2023-07-22T10:15:53;5.28;;;3.03;;
46288;SDS011;63105;46.158;14.604;2023-07-22T10:18:18;4.25;;;2.70;;
46288;SDS011;63105;46.158;14.604;2023-07-22T10:20:46;4.13;;;2.03;;
46288;SDS011;63105;46.158;14.604;2023-07-22T10:23:11;3.25;;;2.10;;
46288;SDS011;63105;46.158;14.604;2023-07-22T10:25:39;4.25;;;2.00;;
46288;SDS011;63105;46.158;14.604;2023-07-22T10:28:04;3.15;;;1.83;;
46288;SDS011;63105;46.158;14.604;2023-07-22T10:30:30;3.13;;;1.58;;
46288;SDS011;63105;46.158;14.604;2023-07-22T10:32:56;2.92;;;1.70;;
46288;SDS011;63105;46.158;14.604;2023-07-22T10:37:56;2.90;;;1.60;;
46288;SDS011;63105;46.158;14.604;2023-07-22T10:45:27;2.97;;;1.70;;
46288;SDS011;63105;46.158;14.604;2023-07-22T10:48:09;3.15;;;1.75;;
46288;SDS011;63105;46.158;14.604;2023-07-22T10:50:38;2.80;;;1.52;;
46288;SDS011;63105;46.158;14.604;2023-07-22T10:53:03;2.70;;;1.50;;
46288;SDS011;63105;46.158;14.604;2023-07-22T10:55:29;2.97;;;1.58;;
46288;SDS011;63105;46.158;14.604;2023-07-22T10:57:54;3.53;;;1.75;;
46288;SDS011;63105;46.158;14.604;2023-07-22T11:00:21;3.53;;;1.67;;
46288;SDS011;63105;46.158;14.604;2023-07-22T11:02:47;2.50;;;1.40;;
46288;SDS011;63105;46.158;14.604;2023-07-22T11:05:12;2.90;;;1.52;;
46288;SDS011;63105;46.158;14.604;2023-07-22T11:07:44;3.42;;;1.67;;
46288;SDS011;63105;46.158;14.604;2023-07-22T11:10:14;2.83;;;1.80;;
46288;SDS011;63105;46.158;14.604;2023-07-22T11:12:42;2.92;;;1.70;;
46288;SDS011;63105;46.158;14.604;2023-07-22T11:15:07;4.43;;;1.88;;
46288;SDS011;63105;46.158;14.604;2023-07-22T11:17:32;2.92;;;1.63;;
46288;SDS011;63105;46.158;14.604;2023-07-22T11:19:58;3.33;;;1.70;;
46288;SDS011;63105;46.158;14.604;2023-07-22T11:22:24;3.15;;;1.65;;
46288;SDS011;63105;46.158;14.604;2023-07-22T11:24:49;3.10;;;1.63;;
46288;SDS011;63105;46.158;14.604;2023-07-22T11:27:14;3.00;;;1.53;;
46288;SDS011;63105;46.158;14.604;2023-07-22T11:29:40;3.30;;;1.80;;
46288;SDS011;63105;46.158;14.604;2023-07-22T11:32:05;2.45;;;1.42;;
46288;SDS011;63105;46.158;14.604;2023-07-22T11:34:31;4.07;;;1.90;;
46288;SDS011;63105;46.158;14.604;2023-07-22T11:36:56;3.15;;;1.70;;
46288;SDS011;63105;46.158;14.604;2023-07-22T11:39:26;3.75;;;1.90;;
46288;SDS011;63105;46.158;14.604;2023-07-22T11:41:51;10.20;;;2.72;;
46288;SDS011;63105;46.158;14.604;2023-07-22T11:44:18;15.15;;;3.03;;
46288;SDS011;63105;46.158;14.604;2023-07-22T11:46:49;8.68;;;2.45;;
46288;SDS011;63105;46.158;14.604;2023-07-22T11:51:50;3.50;;;1.90;;
46288;SDS011;63105;46.158;14.604;2023-07-22T11:54:15;4.00;;;2.10;;
46288;SDS011;63105;46.158;14.604;2023-07-22T11:56:42;3.33;;;1.95;;
46288;SDS011;63105;46.158;14.604;2023-07-22T11:59:07;3.85;;;1.95;;
46288;SDS011;63105;46.158;14.604;2023-07-22T12:01:33;3.17;;;1.67;;
46288;SDS011;63105;46.158;14.604;2023-07-22T12:03:59;2.90;;;1.73;;
46288;SDS011;63105;46.158;14.604;2023-07-22T12:06:24;3.47;;;2.13;;
46288;SDS011;63105;46.158;14.604;2023-07-22T12:08:51;6.82;;;2.63;;
46288;SDS011;63105;46.158;14.604;2023-07-22T12:11:23;4.95;;;2.60;;
46288;SDS011;63105;46.158;14.604;2023-07-22T12:16:29;4.50;;;2.30;;
46288;SDS011;63105;46.158;14.604;2023-07-22T12:18:55;4.27;;;2.10;;
46288;SDS011;63105;46.158;14.604;2023-07-22T12:21:21;3.75;;;1.98;;
46288;SDS011;63105;46.158;14.604;2023-07-22T12:23:46;3.47;;;1.80;;
46288;SDS011;63105;46.158;14.604;2023-07-22T12:26:11;5.00;;;1.93;;
46288;SDS011;63105;46.158;14.604;2023-07-22T12:28:36;3.83;;;1.87;;
46288;SDS011;63105;46.158;14.604;2023-07-22T12:31:02;3.47;;;2.00;;
46288;SDS011;63105;46.158;14.604;2023-07-22T12:33:27;3.42;;;1.90;;
46288;SDS011;63105;46.158;14.604;2023-07-22T12:35:56;4.88;;;2.17;;
46288;SDS011;63105;46.158;14.604;2023-07-22T12:38:21;4.07;;;1.98;;
46288;SDS011;63105;46.158;14.604;2023-07-22T12:40:46;3.40;;;2.20;;
46288;SDS011;63105;46.158;14.604;2023-07-22T12:43:11;3.70;;;1.95;;
46288;SDS011;63105;46.158;14.604;2023-07-22T12:45:37;3.33;;;1.90;;
46288;SDS011;63105;46.158;14.604;2023-07-22T12:48:02;3.93;;;2.00;;
46288;SDS011;63105;46.158;14.604;2023-07-22T12:50:29;4.35;;;2.10;;
46288;SDS011;63105;46.158;14.604;2023-07-22T12:52:54;4.53;;;1.90;;
46288;SDS011;63105;46.158;14.604;2023-07-22T12:55:19;5.37;;;2.20;;
46288;SDS011;63105;46.158;14.604;2023-07-22T12:57:45;4.80;;;1.63;;
46288;SDS011;63105;46.158;14.604;2023-07-22T13:00:11;7.53;;;2.28;;
46288;SDS011;63105;46.158;14.604;2023-07-22T13:02:37;9.13;;;2.30;;
46288;SDS011;63105;46.158;14.604;2023-07-22T13:05:02;5.68;;;1.88;;
46288;SDS011;63105;46.158;14.604;2023-07-22T13:07:28;7.18;;;2.13;;
46288;SDS011;63105;46.158;14.604;2023-07-22T13:09:55;4.70;;;1.87;;
46288;SDS011;63105;46.158;14.604;2023-07-22T13:12:22;4.55;;;1.98;;
46288;SDS011;63105;46.158;14.604;2023-07-22T13:14:47;3.60;;;2.00;;
46288;SDS011;63105;46.158;14.604;2023-07-22T13:17:13;4.63;;;1.80;;
46288;SDS011;63105;46.158;14.604;2023-07-22T13:19:38;5.13;;;1.75;;
46288;SDS011;63105;46.158;14.604;2023-07-22T13:22:03;4.70;;;1.90;;
46288;SDS011;63105;46.158;14.604;2023-07-22T13:24:29;5.18;;;1.80;;
46288;SDS011;63105;46.158;14.604;2023-07-22T13:26:54;3.43;;;1.70;;
46288;SDS011;63105;46.158;14.604;2023-07-22T13:29:19;4.60;;;1.80;;
46288;SDS011;63105;46.158;14.604;2023-07-22T13:31:45;4.45;;;1.75;;
46288;SDS011;63105;46.158;14.604;2023-07-22T13:34:10;3.60;;;1.70;;
46288;SDS011;63105;46.158;14.604;2023-07-22T13:36:35;4.50;;;1.60;;
46288;SDS011;63105;46.158;14.604;2023-07-22T13:39:01;3.03;;;1.50;;
46288;SDS011;63105;46.158;14.604;2023-07-22T13:41:26;4.00;;;1.80;;
46288;SDS011;63105;46.158;14.604;2023-07-22T13:43:51;3.00;;;1.40;;
46288;SDS011;63105;46.158;14.604;2023-07-22T13:46:16;3.30;;;1.60;;
46288;SDS011;63105;46.158;14.604;2023-07-22T13:48:41;4.23;;;1.53;;
46288;SDS011;63105;46.158;14.604;2023-07-22T13:51:07;3.73;;;1.63;;
46288;SDS011;63105;46.158;14.604;2023-07-22T13:53:32;4.10;;;1.60;;
46288;SDS011;63105;46.158;14.604;2023-07-22T13:55:57;2.87;;;1.50;;
46288;SDS011;63105;46.158;14.604;2023-07-22T13:58:22;2.50;;;1.50;;
46288;SDS011;63105;46.158;14.604;2023-07-22T14:00:47;3.23;;;1.90;;
46288;SDS011;63105;46.158;14.604;2023-07-22T14:03:13;2.80;;;1.50;;
46288;SDS011;63105;46.158;14.604;2023-07-22T14:05:39;3.10;;;1.75;;
46288;SDS011;63105;46.158;14.604;2023-07-22T14:08:04;3.20;;;1.70;;
46288;SDS011;63105;46.158;14.604;2023-07-22T14:10:29;3.30;;;1.77;;
46288;SDS011;63105;46.158;14.604;2023-07-22T14:12:55;3.03;;;1.60;;
46288;SDS011;63105;46.158;14.604;2023-07-22T14:15:20;2.75;;;1.60;;
46288;SDS011;63105;46.158;14.604;2023-07-22T14:17:45;3.47;;;1.90;;
46288;SDS011;63105;46.158;14.604;2023-07-22T14:20:10;3.75;;;1.85;;
46288;SDS011;63105;46.158;14.604;2023-07-22T14:22:39;3.22;;;1.70;;
46288;SDS011;63105;46.158;14.604;2023-07-22T14:25:05;3.88;;;1.85;;
46288;SDS011;63105;46.158;14.604;2023-07-22T14:27:30;3.08;;;1.90;;
46288;SDS011;63105;46.158;14.604;2023-07-22T14:29:55;3.20;;;1.83;;
46288;SDS011;63105;46.158;14.604;2023-07-22T14:32:20;3.33;;;1.90;;
46288;SDS011;63105;46.158;14.604;2023-07-22T14:34:46;4.25;;;1.83;;
46288;SDS011;63105;46.158;14.604;2023-07-22T14:37:12;3.00;;;1.70;;